Time;durP1;ratioP1;P1;durP2;ratioP2;P2;SDS_P1;SDS_P2;PMS_P1;PMS_P2;Temp;Humidity;BMP_temperature;BMP_pressure;BME280_temperature;BME280_humidity;BME280_pressure;Samples;Min_cycle;Max_cycle;Signal;HPM_P1;HPM_P2
2021/05/08 00:02:09;;;;;;;17.27;7.95;;;2.60;86.80;;;;;;5037307;28;20415;-92
2021/05/08 00:11:59;;;;;;;18.30;7.82;;;2.50;86.80;;;;;;5037193;28;20466;-91
2021/05/08 00:17:47;;;;;;;17.05;7.75;;;2.40;86.80;;;;;;5037056;28;20059;-91
2021/05/08 00:23:36;;;;;;;17.38;8.98;;;2.30;86.90;;;;;;5036672;28;20032;-91
2021/05/08 00:29:24;;;;;;;17.58;7.45;;;2.20;87.10;;;;;;5036713;28;20036;-91
2021/05/08 00:35:13;;;;;;;20.08;8.80;;;2.20;87.40;;;;;;5036596;28;20071;-91
2021/05/08 00:41:02;;;;;;;16.80;7.03;;;2.20;87.30;;;;;;5036725;28;20480;-91
2021/05/08 00:46:52;;;;;;;14.68;7.03;;;2.20;87.20;;;;;;5036379;28;20044;-91
2021/05/08 00:52:41;;;;;;;19.33;8.35;;;2.10;87.20;;;;;;5036651;28;20084;-93
2021/05/08 00:58:30;;;;;;;18.25;8.18;;;2.10;87.20;;;;;;5036657;28;20382;-94
2021/05/08 01:04:18;;;;;;;15.80;7.38;;;2.00;87.00;;;;;;5036399;28;20031;-94
2021/05/08 01:14:01;;;;;;;16.77;8.00;;;1.90;87.00;;;;;;5036129;28;20115;-93
2021/05/08 01:19:50;;;;;;;18.45;7.68;;;1.70;86.90;;;;;;5036083;28;20412;-93
2021/05/08 01:25:40;;;;;;;18.17;7.95;;;1.60;86.90;;;;;;5035897;28;20028;-92
2021/05/08 01:31:28;;;;;;;18.70;8.60;;;1.60;87.20;;;;;;5035546;28;20516;-92
2021/05/08 01:37:16;;;;;;;17.60;8.05;;;1.50;87.00;;;;;;5034895;28;20489;-91
2021/05/08 01:43:06;;;;;;;19.27;8.35;;;1.40;87.00;;;;;;5035634;28;20092;-92
2021/05/08 01:48:54;;;;;;;20.08;8.98;;;1.40;87.20;;;;;;5035448;28;20044;-91
2021/05/08 01:54:43;;;;;;;17.70;8.73;;;1.40;87.10;;;;;;5035184;28;20087;-90
2021/05/08 02:00:35;;;;;;;20.10;9.20;;;1.30;87.10;;;;;;5035079;28;20051;-91
2021/05/08 02:06:24;;;;;;;23.95;9.73;;;1.20;87.10;;;;;;5035249;28;20033;-92
2021/05/08 02:16:06;;;;;;;20.58;8.32;;;1.10;87.10;;;;;;5035140;28;20089;-92
2021/05/08 02:21:57;;;;;;;18.52;9.07;;;1.00;87.10;;;;;;5035592;28;20056;-91
2021/05/08 02:27:47;;;;;;;18.17;8.18;;;0.90;87.10;;;;;;5051660;28;20020;-90
2021/05/08 02:33:36;;;;;;;19.15;9.82;;;0.90;87.20;;;;;;5046478;28;20044;-90
2021/05/08 02:39:26;;;;;;;24.15;9.20;;;0.80;87.00;;;;;;5048065;28;20064;-91
2021/05/08 02:45:16;;;;;;;23.73;9.80;;;0.80;87.20;;;;;;5036566;28;20199;-92
2021/05/08 02:51:04;;;;;;;25.40;9.32;;;0.80;87.40;;;;;;5034913;28;20040;-92
2021/05/08 02:56:53;;;;;;;24.85;10.20;;;0.80;87.50;;;;;;5034807;28;20040;-95
2021/05/08 03:02:43;;;;;;;27.38;11.38;;;0.70;87.40;;;;;;5035149;28;20136;-93
2021/05/08 03:08:32;;;;;;;29.58;10.77;;;0.70;87.70;;;;;;5034732;28;20062;-93
2021/05/08 03:18:14;;;;;;;32.17;11.48;;;0.70;87.50;;;;;;5034591;28;20052;-92
2021/05/08 03:24:03;;;;;;;31.60;11.50;;;0.60;87.60;;;;;;5034439;28;20032;-93
2021/05/08 03:29:52;;;;;;;28.52;10.32;;;0.60;87.60;;;;;;5034309;28;20080;-92
2021/05/08 03:35:42;;;;;;;27.13;9.95;;;0.60;87.60;;;;;;5034519;28;20028;-93
2021/05/08 03:41:30;;;;;;;26.98;10.55;;;0.60;87.70;;;;;;5034112;28;20497;-93
2021/05/08 03:47:19;;;;;;;28.25;10.70;;;0.60;87.70;;;;;;5033768;28;20084;-90
2021/05/08 03:53:07;;;;;;;34.80;12.93;;;0.60;87.90;;;;;;5033535;28;20048;-91
2021/05/08 03:58:56;;;;;;;31.33;11.38;;;0.70;88.00;;;;;;5033751;28;20113;-92
2021/05/08 04:04:44;;;;;;;28.38;10.60;;;0.70;88.20;;;;;;5037523;28;20035;-91
2021/05/08 04:10:33;;;;;;;25.60;10.50;;;0.70;88.20;;;;;;5037593;28;20091;-91
2021/05/08 04:20:14;;;;;;;31.58;10.90;;;0.80;88.40;;;;;;5037146;28;20520;-91
2021/05/08 04:26:03;;;;;;;36.05;12.75;;;0.90;88.50;;;;;;5037050;28;20036;-91
2021/05/08 04:31:52;;;;;;;28.73;10.50;;;1.00;88.70;;;;;;5037092;28;20033;-93
2021/05/08 04:37:42;;;;;;;29.10;9.63;;;1.10;88.90;;;;;;5036792;28;20032;-91
2021/05/08 04:43:30;;;;;;;26.88;9.18;;;1.20;88.90;;;;;;5036551;28;20040;-91
2021/05/08 04:49:19;;;;;;;34.33;11.73;;;1.40;89.20;;;;;;5036514;28;20381;-91
2021/05/08 04:55:09;;;;;;;30.70;10.65;;;1.50;89.30;;;;;;5036378;28;20048;-91
2021/05/08 05:00:57;;;;;;;29.75;11.07;;;1.70;89.50;;;;;;5036395;28;20107;-92
2021/05/08 05:06:46;;;;;;;27.70;10.15;;;1.80;89.50;;;;;;5035750;28;20519;-90
2021/05/08 05:12:36;;;;;;;25.23;10.50;;;2.10;89.80;;;;;;5042186;28;20076;-91
2021/05/08 05:22:20;;;;;;;28.13;10.30;;;2.40;90.10;;;;;;5035931;28;20105;-93
2021/05/08 05:28:39;;;;;;;28.80;11.57;;;2.60;90.00;;;;;;5035786;28;20032;-92
2021/05/08 05:34:26;;;;;;;26.20;10.55;;;2.80;90.10;;;;;;5035592;28;20061;-94
2021/05/08 05:40:16;;;;;;;31.60;12.68;;;3.00;90.00;;;;;;5039034;28;20072;-94
2021/05/08 05:46:06;;;;;;;32.35;12.57;;;3.20;90.30;;;;;;5036673;28;20500;-92
2021/05/08 05:51:54;;;;;;;31.13;12.82;;;3.40;90.20;;;;;;5036353;28;20080;-92
2021/05/08 05:57:42;;;;;;;30.70;12.90;;;3.70;90.40;;;;;;5035038;28;20028;-85
2021/05/08 06:03:31;;;;;;;25.80;11.57;;;4.00;90.50;;;;;;5034663;28;20040;-85
2021/05/08 06:09:20;;;;;;;38.20;14.30;;;4.20;90.50;;;;;;5034280;28;20028;-86
2021/05/08 06:15:11;;;;;;;34.92;12.55;;;4.50;90.60;;;;;;5034131;28;20499;-86
2021/05/08 06:25:01;;;;;;;25.88;8.63;;;5.00;90.90;;;;;;5034117;28;20079;-86
2021/05/08 06:30:49;;;;;;;33.65;11.30;;;5.50;91.00;;;;;;5034040;28;20078;-88
2021/05/08 06:36:41;;;;;;;33.17;11.82;;;5.80;90.90;;;;;;5034024;28;20039;-88
2021/05/08 06:42:31;;;;;;;32.60;11.63;;;6.00;90.80;;;;;;5034105;28;20119;-88
2021/05/08 06:48:19;;;;;;;38.53;14.15;;;6.30;90.90;;;;;;5034484;28;20386;-88
2021/05/08 06:54:08;;;;;;;31.45;12.00;;;6.70;91.10;;;;;;5036470;28;20134;-86
2021/05/08 06:59:57;;;;;;;25.83;10.10;;;7.00;91.00;;;;;;5037793;28;20037;-88
2021/05/08 07:05:44;;;;;;;27.80;10.32;;;7.30;91.10;;;;;;5034284;28;20064;-88
2021/05/08 07:11:33;;;;;;;20.77;9.30;;;7.60;91.20;;;;;;5033543;28;20480;-89
2021/05/08 07:17:22;;;;;;;24.75;10.60;;;7.90;91.20;;;;;;5033330;28;20060;-90
2021/05/08 07:27:20;;;;;;;22.75;10.60;;;8.40;91.30;;;;;;5033453;28;20049;-87
2021/05/08 07:33:11;;;;;;;25.35;11.07;;;8.80;91.30;;;;;;5033131;28;20056;-87
2021/05/08 07:39:00;;;;;;;24.95;9.50;;;9.20;91.50;;;;;;5037249;28;20080;-88
2021/05/08 07:44:48;;;;;;;24.42;8.60;;;9.50;91.60;;;;;;5036928;28;20108;-87
2021/05/08 07:50:37;;;;;;;18.35;8.55;;;9.80;91.20;;;;;;5037408;28;20039;-87
2021/05/08 07:56:26;;;;;;;21.38;9.02;;;10.20;91.50;;;;;;5036935;28;20183;-86
2021/05/08 08:02:14;;;;;;;17.08;6.95;;;10.50;91.50;;;;;;5036695;28;20032;-87
2021/05/08 08:08:03;;;;;;;15.35;7.55;;;10.90;91.80;;;;;;5036661;28;20052;-87
2021/05/08 08:13:52;;;;;;;13.88;7.63;;;11.10;91.30;;;;;;5036751;28;20091;-86
2021/05/08 08:19:43;;;;;;;17.95;8.35;;;11.30;91.40;;;;;;5036613;28;20369;-87
2021/05/08 08:29:28;;;;;;;18.15;6.43;;;12.00;91.70;;;;;;5036383;28;20036;-87
2021/05/08 08:35:18;;;;;;;7.15;3.70;;;12.20;91.60;;;;;;5035904;28;20505;-86
2021/05/08 08:41:15;;;;;;;9.60;4.72;;;12.50;91.40;;;;;;5036341;28;20496;-88
2021/05/08 08:47:28;;;;;;;8.02;4.22;;;12.70;91.40;;;;;;5036178;28;20040;-88
2021/05/08 08:53:17;;;;;;;9.25;3.80;;;12.90;91.50;;;;;;5035825;28;20056;-88
2021/05/08 08:59:15;;;;;;;10.63;3.85;;;13.20;91.40;;;;;;5035967;28;20159;-88
2021/05/08 09:05:04;;;;;;;8.18;3.55;;;13.50;91.40;;;;;;5035494;28;20032;-88
2021/05/08 09:10:52;;;;;;;8.30;3.38;;;13.70;91.30;;;;;;5035745;28;20390;-89
2021/05/08 09:17:05;;;;;;;8.82;3.30;;;14.00;91.40;;;;;;5035904;28;20156;-90
2021/05/08 09:22:54;;;;;;;7.93;3.47;;;14.60;91.90;;;;;;5035554;28;20501;-91
2021/05/08 09:32:45;;;;;;;8.25;3.28;;;15.20;90.90;;;;;;5035207;28;20096;-91
2021/05/08 09:38:36;;;;;;;8.20;3.30;;;15.50;91.60;;;;;;5037482;28;20168;-91
2021/05/08 09:44:25;;;;;;;9.40;3.17;;;15.80;91.20;;;;;;5039431;28;20500;-91
2021/05/08 09:50:14;;;;;;;7.65;2.90;;;16.20;91.10;;;;;;5039890;28;20049;-90
2021/05/08 09:56:04;;;;;;;6.50;2.63;;;16.60;91.60;;;;;;5037682;28;20393;-92
2021/05/08 10:02:01;;;;;;;5.45;2.90;;;17.10;91.60;;;;;;5037391;28;20498;-91
2021/05/08 10:07:50;;;;;;;6.38;2.70;;;17.50;90.80;;;;;;5037094;28;20028;-92
2021/05/08 10:13:42;;;;;;;5.85;2.45;;;17.80;91.20;;;;;;5034524;28;20056;-91
2021/05/08 10:19:33;;;;;;;6.50;2.90;;;18.50;91.40;;;;;;5038810;28;20051;-91
2021/05/08 10:25:23;;;;;;;5.38;2.30;;;19.20;92.10;;;;;;5041430;28;20420;-91
2021/05/08 10:35:14;;;;;;;7.50;2.90;;;19.90;90.30;;;;;;5041455;28;20589;-92
2021/05/08 10:41:09;;;;;;;4.85;2.40;;;19.70;90.30;;;;;;5041387;28;20032;-92
2021/05/08 10:46:59;;;;;;;4.13;2.40;;;20.10;90.90;;;;;;5043239;28;20060;-91
2021/05/08 10:53:06;;;;;;;4.20;2.08;;;20.40;90.80;;;;;;5042836;28;20060;-92
2021/05/08 10:59:06;;;;;;;5.35;2.50;;;20.80;90.90;;;;;;5042761;28;20448;-92
2021/05/08 11:05:28;;;;;;;4.95;2.53;;;21.40;91.50;;;;;;5041902;28;20052;-91
2021/05/08 11:11:25;;;;;;;7.07;2.30;;;22.10;90.60;;;;;;5054866;28;20044;-89
2021/05/08 11:17:15;;;;;;;4.18;2.13;;;22.50;90.40;;;;;;5051162;28;20071;-90
2021/05/08 11:23:20;;;;;;;5.15;2.15;;;22.20;89.60;;;;;;5053582;28;20039;-90
2021/05/08 11:29:18;;;;;;;4.55;2.33;;;23.30;91.80;;;;;;5045143;28;20024;-90
2021/05/08 11:35:08;;;;;;;5.18;2.03;;;24.60;91.60;;;;;;5045783;28;20039;-91
2021/05/08 11:40:56;;;;;;;7.90;3.75;;;24.80;88.20;;;;;;5044471;28;20048;-90
2021/05/08 11:46:53;;;;;;;5.32;2.30;;;24.80;89.70;;;;;;5044795;28;20488;-89
2021/05/08 11:52:44;;;;;;;4.18;2.00;;;25.40;89.00;;;;;;5044635;28;20036;-89
2021/05/08 11:58:33;;;;;;;5.88;2.35;;;25.20;85.70;;;;;;5042980;28;20032;-89
2021/05/08 12:04:21;;;;;;;3.58;1.85;;;24.70;86.10;;;;;;5042815;28;20116;-88
2021/05/08 12:10:23;;;;;;;5.25;2.47;;;24.70;88.30;;;;;;5041798;28;20516;-89
2021/05/08 12:16:12;;;;;;;2.55;1.77;;;25.30;88.20;;;;;;5038945;28;20032;-89
2021/05/08 12:22:01;;;;;;;2.67;1.80;;;26.20;88.70;;;;;;5038307;28;20600;-90
2021/05/08 12:28:09;;;;;;;3.78;1.85;;;26.30;88.60;;;;;;5038441;28;20373;-90
2021/05/08 12:38:00;;;;;;;5.07;2.65;;;28.60;91.10;;;;;;5038187;28;20039;-90
2021/05/08 12:43:50;;;;;;;5.88;2.75;;;27.90;84.10;;;;;;5039890;28;20028;-90
2021/05/08 12:49:38;;;;;;;3.28;1.70;;;30.00;89.80;;;;;;5040152;28;20025;-90
2021/05/08 12:55:32;;;;;;;3.10;1.77;;;31.60;88.30;;;;;;5039422;28;20504;-90
2021/05/08 13:01:30;;;;;;;2.67;1.70;;;32.50;87.10;;;;;;5039655;28;20021;-90
2021/05/08 13:07:29;;;;;;;2.63;1.70;;;31.80;77.40;;;;;;5043424;28;20092;-90
2021/05/08 13:13:20;;;;;;;5.22;2.20;;;31.20;80.90;;;;;;5042974;28;20048;-90
2021/05/08 13:19:09;;;;;;;2.08;1.60;;;32.00;84.10;;;;;;5040397;28;20137;-90
2021/05/08 13:24:57;;;;;;;1.55;1.35;;;32.20;79.30;;;;;;5043840;28;20036;-90
2021/05/08 13:30:44;;;;;;;3.47;2.40;;;30.30;77.10;;;;;;5040669;28;20036;-88
2021/05/08 13:40:33;;;;;;;3.00;1.60;;;30.30;77.90;;;;;;5040155;28;20087;-91
2021/05/08 13:46:24;;;;;;;3.20;2.00;;;28.80;76.00;;;;;;5042653;28;20075;-93
2021/05/08 13:52:12;;;;;;;3.65;1.85;;;27.50;74.70;;;;;;5042708;28;20512;-92
2021/05/08 13:58:01;;;;;;;4.72;1.80;;;26.70;76.60;;;;;;5042880;28;20128;-91
2021/05/08 14:03:49;;;;;;;3.95;2.08;;;26.30;78.90;;;;;;5043890;28;20040;-91
2021/05/08 14:09:39;;;;;;;4.70;2.10;;;27.30;82.60;;;;;;5043629;28;20052;-93
2021/05/08 14:15:28;;;;;;;10.07;6.60;;;29.60;87.20;;;;;;5044422;28;20156;-92
2021/05/08 14:21:17;;;;;;;3.38;2.00;;;30.20;77.90;;;;;;5043725;28;20079;-92
2021/05/08 14:27:07;;;;;;;3.67;2.10;;;31.50;82.00;;;;;;5041986;28;20068;-95
2021/05/08 14:32:56;;;;;;;3.13;2.08;;;35.00;82.10;;;;;;5043225;28;20045;-94
2021/05/08 14:42:40;;;;;;;4.28;1.92;;;36.60;73.80;;;;;;5044705;28;20047;-93
2021/05/08 14:48:29;;;;;;;5.57;2.40;;;36.20;77.20;;;;;;5042873;28;20064;-91
2021/05/08 14:54:17;;;;;;;3.42;1.65;;;33.90;67.50;;;;;;5040995;28;20040;-89
2021/05/08 15:00:08;;;;;;;3.75;1.80;;;30.50;67.00;;;;;;5042140;28;20037;-90
2021/05/08 15:05:58;;;;;;;2.15;1.70;;;29.10;69.00;;;;;;5043305;28;20056;-91
2021/05/08 15:11:46;;;;;;;6.60;2.88;;;27.90;71.10;;;;;;5042632;28;20056;-90
2021/05/08 15:17:36;;;;;;;5.03;2.28;;;28.30;76.00;;;;;;5041839;28;20076;-91
2021/05/08 15:23:26;;;;;;;4.65;1.90;;;29.90;76.10;;;;;;5040926;28;20036;-90
2021/05/08 15:29:15;;;;;;;3.67;2.10;;;33.90;85.70;;;;;;5042887;28;20044;-89
2021/05/08 15:35:24;;;;;;;11.80;7.18;;;36.40;77.90;;;;;;5043890;28;20037;-90
2021/05/08 15:45:16;;;;;;;3.50;1.95;;;34.70;65.70;;;;;;5042809;28;20452;-90
2021/05/08 15:51:06;;;;;;;6.38;3.00;;;32.00;63.40;;;;;;5040150;28;20056;-92
2021/05/08 16:03:37;;;;;;;5.07;2.10;;;29.70;66.30;;;;;;4964727;29;20108;-84
2021/05/08 16:09:27;;;;;;;2.60;1.80;;;29.50;68.80;;;;;;5044934;28;20108;-86
2021/05/08 16:15:18;;;;;;;6.38;1.70;;;29.40;66.00;;;;;;5045960;28;20048;-86
2021/05/08 16:21:06;;;;;;;4.80;1.90;;;28.70;66.90;;;;;;5045461;28;20075;-83
2021/05/08 16:26:54;;;;;;;3.22;1.90;;;28.60;67.50;;;;;;5045016;28;20104;-86
2021/05/08 16:32:43;;;;;;;7.90;2.70;;;29.10;70.10;;;;;;5044023;28;20037;-85
2021/05/08 16:38:30;;;;;;;2.72;1.50;;;30.70;70.60;;;;;;5043426;28;20536;-86
2021/05/08 16:48:21;;;;;;;3.65;1.70;;;29.90;64.10;;;;;;5043476;28;20040;-81
2021/05/08 16:54:10;;;;;;;3.80;2.03;;;29.00;64.00;;;;;;5044790;28;20416;-87
2021/05/08 17:00:24;;;;;;;3.50;1.80;;;27.90;62.30;;;;;;5045063;28;20029;-88
2021/05/08 17:06:13;;;;;;;3.58;1.60;;;27.10;63.20;;;;;;5042845;28;20078;-88
2021/05/08 17:12:02;;;;;;;2.88;1.67;;;26.20;62.30;;;;;;5043324;28;20037;-88
2021/05/08 17:17:49;;;;;;;3.92;1.58;;;25.30;62.20;;;;;;5043731;28;20041;-83
2021/05/08 17:23:38;;;;;;;2.70;1.50;;;24.50;62.70;;;;;;5043935;28;20036;-84
2021/05/08 17:29:27;;;;;;;3.35;1.67;;;23.80;62.90;;;;;;5044770;28;20049;-85
2021/05/08 17:35:15;;;;;;;2.70;1.60;;;23.50;63.70;;;;;;5044230;28;20064;-85
2021/05/08 17:41:03;;;;;;;2.88;1.70;;;23.10;63.40;;;;;;5044217;28;20028;-85
2021/05/08 17:50:53;;;;;;;4.45;1.98;;;22.50;63.80;;;;;;5042483;28;20110;-86
2021/05/08 17:56:46;;;;;;;3.55;1.77;;;22.10;63.70;;;;;;5041785;28;20079;-87
2021/05/08 18:02:34;;;;;;;2.80;1.83;;;21.90;63.70;;;;;;5042505;28;20068;-84
2021/05/08 18:08:22;;;;;;;2.53;1.70;;;21.70;63.40;;;;;;5040087;28;20127;-84
2021/05/08 18:14:11;;;;;;;4.20;2.40;;;21.30;63.10;;;;;;5039863;28;20060;-84
2021/05/08 18:19:59;;;;;;;3.40;2.00;;;21.00;63.30;;;;;;5039051;28;20025;-84
2021/05/08 18:25:48;;;;;;;2.92;1.90;;;20.50;62.90;;;;;;5040311;28;20091;-84
2021/05/08 18:31:37;;;;;;;12.45;6.07;;;20.20;62.90;;;;;;5039592;28;20129;-85
2021/05/08 18:37:29;;;;;;;5.70;2.58;;;19.80;63.00;;;;;;5038759;28;20040;-85
2021/05/08 18:43:17;;;;;;;4.45;2.10;;;19.40;62.90;;;;;;5040519;28;20033;-87
2021/05/08 18:53:01;;;;;;;4.50;2.25;;;18.90;63.00;;;;;;5040304;28;20044;-89
2021/05/08 18:58:50;;;;;;;5.32;2.30;;;18.60;63.10;;;;;;5040108;28;20064;-90
2021/05/08 19:04:39;;;;;;;4.45;2.05;;;18.30;62.80;;;;;;5040406;28;20060;-87
2021/05/08 19:10:28;;;;;;;6.38;2.58;;;17.90;62.70;;;;;;5039787;28;20072;-90
2021/05/08 19:16:16;;;;;;;4.72;2.40;;;17.50;62.70;;;;;;5040213;28;20033;-90
2021/05/08 19:22:06;;;;;;;4.80;2.40;;;17.20;62.70;;;;;;5040122;28;20052;-89
2021/05/08 19:27:55;;;;;;;4.25;2.30;;;16.90;62.90;;;;;;5040276;28;20028;-90
2021/05/08 19:33:43;;;;;;;4.57;2.33;;;16.60;62.90;;;;;;5044019;28;20044;-90
2021/05/08 19:39:34;;;;;;;4.68;2.20;;;16.30;62.80;;;;;;5043764;28;20143;-88
2021/05/08 19:45:22;;;;;;;4.53;2.08;;;16.10;62.80;;;;;;5044857;28;20075;-88
2021/05/08 19:51:24;;;;;;;5.53;2.25;;;15.80;63.00;;;;;;5045037;28;20109;-89
2021/05/08 19:57:15;;;;;;;5.30;2.30;;;15.60;63.00;;;;;;5046015;28;20110;-88
2021/05/08 20:03:04;;;;;;;5.20;2.00;;;15.40;63.10;;;;;;5044496;28;20101;-89
2021/05/08 20:08:52;;;;;;;4.78;2.22;;;15.20;63.10;;;;;;5043144;28;20040;-88
2021/05/08 20:14:42;;;;;;;5.53;2.60;;;15.00;63.30;;;;;;5042119;28;20079;-88
2021/05/08 20:20:31;;;;;;;3.53;2.00;;;14.80;63.20;;;;;;5042282;28;20090;-89
2021/05/08 20:26:19;;;;;;;4.97;2.30;;;14.60;63.30;;;;;;5042469;28;20087;-89
2021/05/08 20:32:09;;;;;;;6.53;2.70;;;14.50;63.30;;;;;;5042517;28;20087;-89
2021/05/08 20:37:57;;;;;;;5.60;2.40;;;14.30;63.30;;;;;;5042263;28;20040;-89
2021/05/08 20:43:49;;;;;;;5.93;2.17;;;14.10;63.40;;;;;;5041674;28;20036;-87
2021/05/08 20:49:38;;;;;;;4.50;2.25;;;14.00;63.60;;;;;;5041438;28;20097;-88
2021/05/08 20:59:26;;;;;;;6.00;2.35;;;13.70;63.40;;;;;;5040962;28;20032;-90
2021/05/08 21:05:15;;;;;;;5.60;2.40;;;13.50;63.50;;;;;;5040972;28;20087;-89
2021/05/08 21:11:04;;;;;;;4.03;2.30;;;13.30;63.50;;;;;;5040716;28;20045;-89
2021/05/08 21:16:52;;;;;;;5.15;2.35;;;13.20;63.60;;;;;;5041993;28;20116;-89
2021/05/08 21:22:41;;;;;;;5.93;2.42;;;13.10;63.60;;;;;;5041510;28;20076;-92
2021/05/08 21:28:31;;;;;;;5.90;2.50;;;13.00;63.70;;;;;;5041892;28;20429;-92
2021/05/08 21:34:20;;;;;;;5.13;2.20;;;12.80;63.60;;;;;;5040078;28;20044;-89
2021/05/08 21:40:10;;;;;;;5.45;2.28;;;12.70;63.70;;;;;;5039767;28;20052;-89
2021/05/08 21:45:57;;;;;;;6.25;2.47;;;12.60;63.70;;;;;;5040192;28;20661;-89
2021/05/08 21:51:45;;;;;;;5.78;2.40;;;12.50;63.80;;;;;;5039488;28;20540;-88
2021/05/08 22:01:30;;;;;;;5.43;2.20;;;12.30;63.70;;;;;;5039386;28;20109;-89
2021/05/08 22:07:20;;;;;;;6.00;2.40;;;12.20;63.80;;;;;;5038646;28;20036;-88
2021/05/08 22:13:09;;;;;;;4.68;2.25;;;12.10;63.90;;;;;;5039015;28;20382;-88
2021/05/08 22:18:57;;;;;;;5.65;2.60;;;12.00;64.00;;;;;;5038995;28;20497;-88
2021/05/08 22:24:46;;;;;;;5.35;2.38;;;11.90;64.00;;;;;;5038839;28;20059;-90
2021/05/08 22:30:34;;;;;;;5.30;2.60;;;11.70;63.80;;;;;;5039497;28;20434;-90
2021/05/08 22:36:23;;;;;;;5.20;2.55;;;11.60;63.90;;;;;;5034051;28;20084;-89
2021/05/08 22:42:12;;;;;;;5.43;2.65;;;11.50;64.00;;;;;;5034110;28;20087;-88
2021/05/08 22:48:00;;;;;;;7.38;2.97;;;11.40;63.80;;;;;;5033968;28;20056;-87
2021/05/08 22:53:49;;;;;;;7.60;3.33;;;11.20;63.90;;;;;;5033503;28;20112;-88
2021/05/08 23:03:31;;;;;;;6.82;2.92;;;11.00;63.90;;;;;;5033679;28;20075;-88
2021/05/08 23:09:21;;;;;;;5.38;2.60;;;10.80;63.90;;;;;;5033871;28;20029;-88
2021/05/08 23:15:12;;;;;;;6.95;3.08;;;10.70;64.00;;;;;;5033819;28;20076;-91
2021/05/08 23:21:00;;;;;;;7.78;2.85;;;10.60;64.10;;;;;;5033881;28;20106;-90
2021/05/08 23:26:50;;;;;;;6.32;3.13;;;10.50;64.00;;;;;;5033328;28;20063;-90
2021/05/08 23:32:38;;;;;;;6.40;2.70;;;10.30;64.10;;;;;;5033598;28;20032;-91
2021/05/08 23:38:27;;;;;;;6.32;3.00;;;10.20;64.30;;;;;;5033742;28;20432;-91
2021/05/08 23:44:16;;;;;;;6.93;2.80;;;10.10;64.10;;;;;;5033604;28;20515;-91
2021/05/08 23:50:05;;;;;;;5.95;3.05;;;10.00;64.20;;;;;;5033574;28;20508;-91
2021/05/08 23:55:54;;;;;;;7.00;3.17;;;9.80;64.30;;;;;;5050027;28;20056;-90
